EZY857U EGAA-EGPH
Flight info
| Callsign | EZY857U |
|---|---|
| Flight time | N/A |
| Altitude | 19000 |
| Route | BLACA P600 TUNSO |
| Aircraft | A320/M-SDE3FGHIRWY/LB1 |
Departure
| Time | 2026-04-27 20:17 |
|---|---|
| Airport | Belfast International Airport (EGAA) |
Arrival
| Time | N/A |
|---|---|
| Airport | Edinburgh Airport (EGPH) |
| Time | Latitude | Longitude | Altitude | Speed | Heading |
|---|---|---|---|---|---|
| 2026-04-27 19:57 | 54.66109 | -6.21356 | 272 ft | 0 kts | 246° |
| 2026-04-27 19:58 | 54.66109 | -6.21355 | 272 ft | 0 kts | 246° |
| 2026-04-27 20:07 | 54.66113 | -6.21339 | 272 ft | 4 kts | 245° |
| 2026-04-27 20:07 | 54.66123 | -6.21304 | 275 ft | 3 kts | 246° |
| 2026-04-27 20:07 | 54.66126 | -6.21268 | 279 ft | 4 kts | 313° |
| 2026-04-27 20:07 | 54.66105 | -6.21245 | 280 ft | 3 kts | 335° |
| 2026-04-27 20:08 | 54.66081 | -6.21226 | 272 ft | 4 kts | 335° |
| 2026-04-27 20:08 | 54.66059 | -6.21207 | 275 ft | 4 kts | 319° |
| 2026-04-27 20:08 | 54.66046 | -6.21173 | 272 ft | 4 kts | 266° |
| 2026-04-27 20:08 | 54.66054 | -6.21130 | 274 ft | 3 kts | 244° |
| 2026-04-27 20:09 | 54.66056 | -6.21122 | 275 ft | 1 kts | 245° |
| 2026-04-27 20:12 | 54.66050 | -6.21143 | 272 ft | 4 kts | 245° |
| 2026-04-27 20:12 | 54.66042 | -6.21174 | 272 ft | 5 kts | 245° |
| 2026-04-27 20:12 | 54.66019 | -6.21257 | 272 ft | 7 kts | 245° |
| 2026-04-27 20:12 | 54.65990 | -6.21364 | 274 ft | 13 kts | 245° |
| 2026-04-27 20:13 | 54.65941 | -6.21547 | 272 ft | 19 kts | 245° |
| 2026-04-27 20:13 | 54.65878 | -6.21782 | 272 ft | 24 kts | 245° |
| 2026-04-27 20:13 | 54.65804 | -6.22057 | 274 ft | 24 kts | 245° |
| 2026-04-27 20:13 | 54.65766 | -6.22303 | 272 ft | 20 kts | 262° |
| 2026-04-27 20:14 | 54.65750 | -6.22537 | 276 ft | 20 kts | 264° |
| 2026-04-27 20:14 | 54.65739 | -6.22782 | 272 ft | 20 kts | 260° |
| 2026-04-27 20:14 | 54.65671 | -6.22993 | 275 ft | 19 kts | 234° |
| 2026-04-27 20:14 | 54.65600 | -6.23159 | 272 ft | 16 kts | 233° |
| 2026-04-27 20:15 | 54.65542 | -6.23293 | 275 ft | 12 kts | 228° |
| 2026-04-27 20:15 | 54.65502 | -6.23340 | 272 ft | 10 kts | 205° |
| 2026-04-27 20:15 | 54.65440 | -6.23384 | 272 ft | 10 kts | 202° |
| 2026-04-27 20:15 | 54.65371 | -6.23405 | 272 ft | 10 kts | 167° |
| 2026-04-27 20:16 | 54.65309 | -6.23337 | 272 ft | 11 kts | 128° |
| 2026-04-27 20:16 | 54.65308 | -6.23216 | 275 ft | 11 kts | 66° |
| 2026-04-27 20:16 | 54.65318 | -6.23183 | 272 ft | 0 kts | 63° |
| 2026-04-27 20:17 | 54.65384 | -6.22944 | 272 ft | 69 kts | 65° |
| 2026-04-27 20:17 | 54.65722 | -6.21715 | 279 ft | 151 kts | 64° |
| 2026-04-27 20:17 | 54.66206 | -6.20038 | 1065 ft | 156 kts | 62° |
| 2026-04-27 20:18 | 54.66675 | -6.18275 | 1992 ft | 170 kts | 64° |
| 2026-04-27 20:18 | 54.67131 | -6.16252 | 2661 ft | 194 kts | 66° |
| 2026-04-27 20:18 | 54.67630 | -6.13914 | 3451 ft | 220 kts | 68° |
| 2026-04-27 20:18 | 54.68184 | -6.11293 | 4353 ft | 243 kts | 69° |
| 2026-04-27 20:19 | 54.68779 | -6.08486 | 5590 ft | 253 kts | 69° |
| 2026-04-27 20:19 | 54.69389 | -6.05598 | 6944 ft | 257 kts | 69° |
| 2026-04-27 20:19 | 54.70009 | -6.02669 | 8202 ft | 263 kts | 68° |
| 2026-04-27 20:19 | 54.70650 | -5.99665 | 9485 ft | 268 kts | 66° |
| 2026-04-27 20:20 | 54.71310 | -5.96602 | 10694 ft | 276 kts | 65° |
| 2026-04-27 20:20 | 54.72015 | -5.93356 | 11374 ft | 301 kts | 64° |
| 2026-04-27 20:20 | 54.72784 | -5.89826 | 11981 ft | 325 kts | 65° |
| 2026-04-27 20:20 | 54.73578 | -5.86135 | 12844 ft | 336 kts | 65° |
| 2026-04-27 20:21 | 54.74393 | -5.82301 | 13891 ft | 343 kts | 65° |
| 2026-04-27 20:21 | 54.75223 | -5.78383 | 14865 ft | 348 kts | 64° |
| 2026-04-27 20:21 | 54.76061 | -5.74423 | 15816 ft | 353 kts | 64° |
| 2026-04-27 20:21 | 54.76912 | -5.70399 | 16769 ft | 358 kts | 64° |
| 2026-04-27 20:22 | 54.77777 | -5.66321 | 17703 ft | 363 kts | 63° |
| 2026-04-27 20:22 | 54.78655 | -5.62184 | 18599 ft | 369 kts | 63° |
| 2026-04-27 20:22 | 54.79547 | -5.57990 | 19157 ft | 373 kts | 63° |
| 2026-04-27 20:22 | 54.80442 | -5.53766 | 19340 ft | 374 kts | 63° |
| 2026-04-27 20:23 | 54.81348 | -5.49476 | 19414 ft | 388 kts | 63° |
| 2026-04-27 20:23 | 54.82291 | -5.45025 | 19417 ft | 397 kts | 63° |
| 2026-04-27 20:23 | 54.83235 | -5.40519 | 19423 ft | 397 kts | 63° |
| 2026-04-27 20:23 | 54.84169 | -5.36020 | 19410 ft | 395 kts | 63° |
| 2026-04-27 20:24 | 54.85096 | -5.31532 | 19410 ft | 395 kts | 63° |
| 2026-04-27 20:24 | 54.86022 | -5.27049 | 19409 ft | 394 kts | 63° |
| 2026-04-27 20:24 | 54.87011 | -5.22632 | 19408 ft | 389 kts | 58° |